sensor_id;sensor_type;location;lat;lon;timestamp;pressure;altitude;pressure_sealevel;temperature;humidity
37610;BME280;23457;51.966;8.230;2022-07-22T00:00:49;101238.28;;;18.73;100.00
37610;BME280;23457;51.966;8.230;2022-07-22T00:03:15;101235.75;;;18.56;100.00
37610;BME280;23457;51.966;8.230;2022-07-22T00:05:42;101242.88;;;18.45;100.00
37610;BME280;23457;51.966;8.230;2022-07-22T00:08:08;101242.00;;;18.46;100.00
37610;BME280;23457;51.966;8.230;2022-07-22T00:10:35;101248.13;;;18.45;100.00
37610;BME280;23457;51.966;8.230;2022-07-22T00:13:02;101249.88;;;18.46;100.00
37610;BME280;23457;51.966;8.230;2022-07-22T00:15:28;101242.84;;;18.48;100.00
37610;BME280;23457;51.966;8.230;2022-07-22T00:17:55;101255.25;;;18.31;100.00
37610;BME280;23457;51.966;8.230;2022-07-22T00:20:21;101263.16;;;18.32;100.00
37610;BME280;23457;51.966;8.230;2022-07-22T00:22:48;101251.56;;;18.56;100.00
37610;BME280;23457;51.966;8.230;2022-07-22T00:25:15;101244.53;;;18.53;100.00
37610;BME280;23457;51.966;8.230;2022-07-22T00:27:41;101257.03;;;18.25;100.00
37610;BME280;23457;51.966;8.230;2022-07-22T00:30:08;101256.91;;;18.44;100.00
37610;BME280;23457;51.966;8.230;2022-07-22T00:32:35;101255.28;;;18.27;100.00
37610;BME280;23457;51.966;8.230;2022-07-22T00:35:03;101260.69;;;18.05;100.00
37610;BME280;23457;51.966;8.230;2022-07-22T00:37:30;101261.56;;;18.07;100.00
37610;BME280;23457;51.966;8.230;2022-07-22T00:39:57;101269.38;;;18.17;100.00
37610;BME280;23457;51.966;8.230;2022-07-22T00:42:23;101274.72;;;18.05;100.00
37610;BME280;23457;51.966;8.230;2022-07-22T00:44:50;101273.03;;;17.92;100.00
37610;BME280;23457;51.966;8.230;2022-07-22T00:47:17;101271.28;;;17.93;100.00
37610;BME280;23457;51.966;8.230;2022-07-22T00:49:44;101280.09;;;17.84;100.00
37610;BME280;23457;51.966;8.230;2022-07-22T00:52:11;101280.03;;;17.93;100.00
37610;BME280;23457;51.966;8.230;2022-07-22T00:54:38;101278.28;;;17.92;100.00
37610;BME280;23457;51.966;8.230;2022-07-22T00:57:05;101277.34;;;18.04;100.00
37610;BME280;23457;51.966;8.230;2022-07-22T00:59:32;101268.59;;;18.00;100.00
37610;BME280;23457;51.966;8.230;2022-07-22T01:01:58;101270.47;;;17.81;100.00
37610;BME280;23457;51.966;8.230;2022-07-22T01:04:25;101280.97;;;17.84;100.00
37610;BME280;23457;51.966;8.230;2022-07-22T01:06:52;101286.19;;;17.89;100.00
37610;BME280;23457;51.966;8.230;2022-07-22T01:09:19;101288.00;;;17.82;100.00
37610;BME280;23457;51.966;8.230;2022-07-22T01:11:45;101279.09;;;18.05;100.00
37610;BME280;23457;51.966;8.230;2022-07-22T01:14:13;101283.47;;;18.10;100.00
37610;BME280;23457;51.966;8.230;2022-07-22T01:16:39;101282.53;;;18.13;100.00
37610;BME280;23457;51.966;8.230;2022-07-22T01:19:10;101285.16;;;18.14;100.00
37610;BME280;23457;51.966;8.230;2022-07-22T01:21:37;101281.81;;;17.91;100.00
37610;BME280;23457;51.966;8.230;2022-07-22T01:24:04;101279.22;;;17.85;100.00
37610;BME280;23457;51.966;8.230;2022-07-22T01:26:31;101282.59;;;18.07;100.00
37610;BME280;23457;51.966;8.230;2022-07-22T01:28:59;101280.88;;;18.03;100.00
37610;BME280;23457;51.966;8.230;2022-07-22T01:31:26;101285.22;;;18.05;100.00
37610;BME280;23457;51.966;8.230;2022-07-22T01:33:54;101280.91;;;17.97;100.00
37610;BME280;23457;51.966;8.230;2022-07-22T01:36:21;101293.13;;;18.10;100.00
37610;BME280;23457;51.966;8.230;2022-07-22T01:38:48;101281.75;;;17.99;100.00
37610;BME280;23457;51.966;8.230;2022-07-22T01:41:15;101292.38;;;17.76;100.00
37610;BME280;23457;51.966;8.230;2022-07-22T01:43:42;101294.94;;;17.97;100.00
37610;BME280;23457;51.966;8.230;2022-07-22T01:46:08;101303.63;;;18.10;100.00
37610;BME280;23457;51.966;8.230;2022-07-22T01:48:35;101293.94;;;18.13;100.00
37610;BME280;23457;51.966;8.230;2022-07-22T01:51:02;101304.47;;;18.15;100.00
37610;BME280;23457;51.966;8.230;2022-07-22T01:53:28;101295.66;;;18.22;100.00
37610;BME280;23457;51.966;8.230;2022-07-22T01:55:55;101304.44;;;18.22;100.00
37610;BME280;23457;51.966;8.230;2022-07-22T01:58:21;101300.06;;;18.18;100.00
37610;BME280;23457;51.966;8.230;2022-07-22T02:00:48;101301.84;;;18.15;100.00
37610;BME280;23457;51.966;8.230;2022-07-22T02:03:15;101313.31;;;18.02;100.00
37610;BME280;23457;51.966;8.230;2022-07-22T02:05:42;101309.03;;;17.84;100.00
37610;BME280;23457;51.966;8.230;2022-07-22T02:08:10;101308.16;;;17.79;100.00
37610;BME280;23457;51.966;8.230;2022-07-22T02:10:37;101306.44;;;17.66;100.00
37610;BME280;23457;51.966;8.230;2022-07-22T02:13:04;101308.19;;;17.67;100.00
37610;BME280;23457;51.966;8.230;2022-07-22T02:15:32;101302.91;;;17.76;100.00
37610;BME280;23457;51.966;8.230;2022-07-22T02:17:58;101300.25;;;17.85;100.00
37610;BME280;23457;51.966;8.230;2022-07-22T02:20:25;101313.41;;;17.79;100.00
37610;BME280;23457;51.966;8.230;2022-07-22T02:22:51;101308.16;;;17.82;100.00
37610;BME280;23457;51.966;8.230;2022-07-22T02:25:18;101308.03;;;18.03;100.00
37610;BME280;23457;51.966;8.230;2022-07-22T02:27:44;101306.34;;;17.96;100.00
37610;BME280;23457;51.966;8.230;2022-07-22T02:30:12;101303.72;;;17.93;100.00
37610;BME280;23457;51.966;8.230;2022-07-22T02:32:38;101303.69;;;17.96;100.00
37610;BME280;23457;51.966;8.230;2022-07-22T02:35:05;101306.44;;;17.72;100.00
37610;BME280;23457;51.966;8.230;2022-07-22T02:37:32;101279.34;;;17.45;100.00
37610;BME280;23457;51.966;8.230;2022-07-22T02:39:59;101308.22;;;17.58;100.00
37610;BME280;23457;51.966;8.230;2022-07-22T02:42:27;101302.06;;;17.63;100.00
37610;BME280;23457;51.966;8.230;2022-07-22T02:44:53;101301.16;;;17.75;100.00
37610;BME280;23457;51.966;8.230;2022-07-22T02:47:20;101311.66;;;17.81;100.00
37610;BME280;23457;51.966;8.230;2022-07-22T02:49:46;101309.91;;;17.77;100.00
37610;BME280;23457;51.966;8.230;2022-07-22T02:52:13;101302.03;;;17.78;100.00
37610;BME280;23457;51.966;8.230;2022-07-22T02:54:39;101304.66;;;17.80;100.00
37610;BME280;23457;51.966;8.230;2022-07-22T02:57:06;101300.19;;;17.93;100.00
37610;BME280;23457;51.966;8.230;2022-07-22T02:59:32;101307.34;;;17.63;100.00
37610;BME280;23457;51.966;8.230;2022-07-22T03:01:59;101306.38;;;17.85;100.00
37610;BME280;23457;51.966;8.230;2022-07-22T03:04:25;101309.91;;;17.81;100.00
37610;BME280;23457;51.966;8.230;2022-07-22T03:06:52;101319.53;;;17.78;100.00
37610;BME280;23457;51.966;8.230;2022-07-22T03:09:19;101313.41;;;17.80;100.00
37610;BME280;23457;51.966;8.230;2022-07-22T03:11:46;101316.03;;;17.85;100.00
37610;BME280;23457;51.966;8.230;2022-07-22T03:14:13;101309.97;;;17.66;100.00
37610;BME280;23457;51.966;8.230;2022-07-22T03:16:39;101320.41;;;17.78;100.00
37610;BME280;23457;51.966;8.230;2022-07-22T03:19:06;101319.50;;;17.88;100.00
37610;BME280;23457;51.966;8.230;2022-07-22T03:21:32;101319.53;;;17.81;100.00
37610;BME280;23457;51.966;8.230;2022-07-22T03:24:00;101313.47;;;17.70;100.00
37610;BME280;23457;51.966;8.230;2022-07-22T03:26:26;101325.69;;;17.75;100.00
37610;BME280;23457;51.966;8.230;2022-07-22T03:28:53;101326.59;;;17.71;100.00
37610;BME280;23457;51.966;8.230;2022-07-22T03:31:20;101314.34;;;17.52;100.00
37610;BME280;23457;51.966;8.230;2022-07-22T03:33:47;101318.72;;;17.73;100.00
37610;BME280;23457;51.966;8.230;2022-07-22T03:36:14;101315.22;;;17.59;100.00
37610;BME280;23457;51.966;8.230;2022-07-22T03:38:40;101320.47;;;17.65;100.00
37610;BME280;23457;51.966;8.230;2022-07-22T03:41:07;101322.25;;;17.47;100.00
37610;BME280;23457;51.966;8.230;2022-07-22T03:43:34;101322.25;;;17.38;100.00
37610;BME280;23457;51.966;8.230;2022-07-22T03:46:00;101314.44;;;17.14;100.00
37610;BME280;23457;51.966;8.230;2022-07-22T03:48:27;101313.53;;;17.33;100.00
37610;BME280;23457;51.966;8.230;2022-07-22T03:50:54;101313.50;;;17.42;100.00
37610;BME280;23457;51.966;8.230;2022-07-22T03:53:20;101320.47;;;17.59;100.00
37610;BME280;23457;51.966;8.230;2022-07-22T03:55:47;101321.34;;;17.58;100.00
37610;BME280;23457;51.966;8.230;2022-07-22T03:58:16;101318.72;;;17.59;100.00
37610;BME280;23457;51.966;8.230;2022-07-22T04:00:43;101329.19;;;17.77;100.00
37610;BME280;23457;51.966;8.230;2022-07-22T04:03:10;101330.94;;;17.74;100.00
37610;BME280;23457;51.966;8.230;2022-07-22T04:05:37;101318.72;;;17.67;100.00
37610;BME280;23457;51.966;8.230;2022-07-22T04:08:04;101326.66;;;17.44;100.00
37610;BME280;23457;51.966;8.230;2022-07-22T04:10:31;101345.00;;;17.70;100.00
37610;BME280;23457;51.966;8.230;2022-07-22T04:12:57;101337.06;;;17.79;100.00
37610;BME280;23457;51.966;8.230;2022-07-22T04:15:24;101329.19;;;17.83;100.00
37610;BME280;23457;51.966;8.230;2022-07-22T04:17:51;101334.50;;;17.67;100.00
37610;BME280;23457;51.966;8.230;2022-07-22T04:20:17;101332.72;;;17.63;100.00
37610;BME280;23457;51.966;8.230;2022-07-22T04:22:44;101338.00;;;17.58;100.00
37610;BME280;23457;51.966;8.230;2022-07-22T04:25:11;101331.84;;;17.62;100.00
37610;BME280;23457;51.966;8.230;2022-07-22T04:27:37;101338.88;;;17.63;100.00
37610;BME280;23457;51.966;8.230;2022-07-22T04:30:04;101338.03;;;17.47;100.00
37610;BME280;23457;51.966;8.230;2022-07-22T04:32:31;101342.44;;;17.35;100.00
37610;BME280;23457;51.966;8.230;2022-07-22T04:34:58;101343.25;;;17.53;100.00
37610;BME280;23457;51.966;8.230;2022-07-22T04:37:24;101339.75;;;17.54;100.00
37610;BME280;23457;51.966;8.230;2022-07-22T04:39:51;101344.97;;;17.82;100.00
37610;BME280;23457;51.966;8.230;2022-07-22T04:42:18;101347.66;;;17.44;100.00
37610;BME280;23457;51.966;8.230;2022-07-22T04:44:44;101335.34;;;17.63;100.00
37610;BME280;23457;51.966;8.230;2022-07-22T04:47:11;101339.66;;;17.91;100.00
37610;BME280;23457;51.966;8.230;2022-07-22T04:49:38;101349.28;;;17.89;100.00
37610;BME280;23457;51.966;8.230;2022-07-22T04:52:04;101342.28;;;17.88;100.00
37610;BME280;23457;51.966;8.230;2022-07-22T04:54:33;101339.84;;;17.21;100.00
37610;BME280;23457;51.966;8.230;2022-07-22T04:57:01;101346.81;;;17.31;100.00
37610;BME280;23457;51.966;8.230;2022-07-22T04:59:27;101342.41;;;17.36;100.00
37610;BME280;23457;51.966;8.230;2022-07-22T05:01:54;101335.44;;;17.14;100.00
37610;BME280;23457;51.966;8.230;2022-07-22T05:04:20;101343.31;;;17.32;100.00
37610;BME280;23457;51.966;8.230;2022-07-22T05:06:47;101352.06;;;17.28;100.00
37610;BME280;23457;51.966;8.230;2022-07-22T05:09:13;101345.88;;;17.55;100.00
37610;BME280;23457;51.966;8.230;2022-07-22T05:11:40;101346.72;;;17.74;100.00
37610;BME280;23457;51.966;8.230;2022-07-22T05:14:07;101340.53;;;17.88;100.00
37610;BME280;23457;51.966;8.230;2022-07-22T05:16:35;101343.16;;;17.87;100.00
37610;BME280;23457;51.966;8.230;2022-07-22T05:19:04;101340.53;;;17.95;100.00
37610;BME280;23457;51.966;8.230;2022-07-22T05:21:32;101338.88;;;17.65;100.00
37610;BME280;23457;51.966;8.230;2022-07-22T05:23:59;101344.09;;;17.78;100.00
37610;BME280;23457;51.966;8.230;2022-07-22T05:26:25;101341.41;;;17.90;100.00
37610;BME280;23457;51.966;8.230;2022-07-22T05:28:54;101342.28;;;17.94;100.00
37610;BME280;23457;51.966;8.230;2022-07-22T05:31:22;101351.91;;;17.98;100.00
37610;BME280;23457;51.966;8.230;2022-07-22T05:33:48;101354.59;;;17.83;100.00
37610;BME280;23457;51.966;8.230;2022-07-22T05:36:15;101347.53;;;17.94;100.00
37610;BME280;23457;51.966;8.230;2022-07-22T05:38:43;101347.50;;;17.99;100.00
37610;BME280;23457;51.966;8.230;2022-07-22T05:41:09;101342.31;;;17.85;100.00
37610;BME280;23457;51.966;8.230;2022-07-22T05:43:36;101351.94;;;17.89;100.00
37610;BME280;23457;51.966;8.230;2022-07-22T05:46:02;101353.63;;;18.01;100.00
37610;BME280;23457;51.966;8.230;2022-07-22T05:48:29;101357.13;;;18.01;100.00
37610;BME280;23457;51.966;8.230;2022-07-22T05:50:56;101361.59;;;17.85;100.00
37610;BME280;23457;51.966;8.230;2022-07-22T05:53:23;101364.31;;;17.47;100.00
37610;BME280;23457;51.966;8.230;2022-07-22T05:55:49;101364.31;;;17.26;100.00
37610;BME280;23457;51.966;8.230;2022-07-22T05:58:16;101364.34;;;17.20;100.00
37610;BME280;23457;51.966;8.230;2022-07-22T06:00:43;101358.22;;;17.07;100.00
37610;BME280;23457;51.966;8.230;2022-07-22T06:03:09;101364.34;;;16.77;100.00
37610;BME280;23457;51.966;8.230;2022-07-22T06:05:43;101367.84;;;16.87;100.00
37610;BME280;23457;51.966;8.230;2022-07-22T06:08:10;101375.72;;;16.92;100.00
37610;BME280;23457;51.966;8.230;2022-07-22T06:10:36;101373.06;;;16.73;100.00
37610;BME280;23457;51.966;8.230;2022-07-22T06:13:03;101376.56;;;16.66;100.00
37610;BME280;23457;51.966;8.230;2022-07-22T06:15:29;101382.72;;;16.93;100.00
37610;BME280;23457;51.966;8.230;2022-07-22T06:17:56;101378.34;;;17.22;100.00
37610;BME280;23457;51.966;8.230;2022-07-22T06:20:22;101374.84;;;17.20;100.00
37610;BME280;23457;51.966;8.230;2022-07-22T06:22:49;101378.34;;;17.10;100.00
37610;BME280;23457;51.966;8.230;2022-07-22T06:25:16;101371.34;;;17.18;100.00
37610;BME280;23457;51.966;8.230;2022-07-22T06:28:02;101380.09;;;17.29;100.00
37610;BME280;23457;51.966;8.230;2022-07-22T06:30:29;101374.84;;;17.29;100.00
37610;BME280;23457;51.966;8.230;2022-07-22T06:32:55;101378.31;;;17.25;100.00
37610;BME280;23457;51.966;8.230;2022-07-22T06:35:22;101380.06;;;17.38;100.00
37610;BME280;23457;51.966;8.230;2022-07-22T06:37:51;101386.22;;;17.46;100.00
37610;BME280;23457;51.966;8.230;2022-07-22T06:40:31;101380.06;;;17.60;100.00
37610;BME280;23457;51.966;8.230;2022-07-22T06:42:58;101369.50;;;17.73;100.00
37610;BME280;23457;51.966;8.230;2022-07-22T06:45:25;101383.56;;;17.66;100.00
37610;BME280;23457;51.966;8.230;2022-07-22T06:47:52;101382.66;;;17.78;100.00
37610;BME280;23457;51.966;8.230;2022-07-22T06:50:19;101385.28;;;17.84;100.00
37610;BME280;23457;51.966;8.230;2022-07-22T06:52:45;101387.91;;;17.76;100.00
37610;BME280;23457;51.966;8.230;2022-07-22T06:55:12;101383.53;;;17.81;100.00
37610;BME280;23457;51.966;8.230;2022-07-22T06:57:39;101380.00;;;17.85;100.00
37610;BME280;23457;51.966;8.230;2022-07-22T07:00:06;101382.53;;;18.10;100.00
37610;BME280;23457;51.966;8.230;2022-07-22T07:02:35;101376.47;;;17.94;100.00
37610;BME280;23457;51.966;8.230;2022-07-22T07:05:02;101376.50;;;17.82;100.00
37610;BME280;23457;51.966;8.230;2022-07-22T07:07:29;101386.22;;;17.43;100.00
37610;BME280;23457;51.966;8.230;2022-07-22T07:09:55;101377.38;;;17.73;100.00
37610;BME280;23457;51.966;8.230;2022-07-22T07:12:22;101379.06;;;18.00;100.00
37610;BME280;23457;51.966;8.230;2022-07-22T07:14:49;101377.28;;;18.07;100.00
37610;BME280;23457;51.966;8.230;2022-07-22T07:17:35;101371.16;;;18.03;100.00
37610;BME280;23457;51.966;8.230;2022-07-22T07:20:02;101365.78;;;18.24;100.00
37610;BME280;23457;51.966;8.230;2022-07-22T07:22:29;101370.28;;;18.03;100.00
37610;BME280;23457;51.966;8.230;2022-07-22T07:24:56;101366.69;;;18.22;100.00
37610;BME280;23457;51.966;8.230;2022-07-22T07:27:23;101365.78;;;18.24;100.00
37610;BME280;23457;51.966;8.230;2022-07-22T07:29:51;101358.69;;;18.39;100.00
37610;BME280;23457;51.966;8.230;2022-07-22T07:32:17;101369.41;;;18.08;100.00
37610;BME280;23457;51.966;8.230;2022-07-22T07:34:44;101365.13;;;17.80;100.00
37610;BME280;23457;51.966;8.230;2022-07-22T07:37:10;101363.28;;;18.03;100.00
37610;BME280;23457;51.966;8.230;2022-07-22T07:39:38;101367.53;;;18.30;100.00
37610;BME280;23457;51.966;8.230;2022-07-22T07:42:05;101357.88;;;18.29;100.00
37610;BME280;23457;51.966;8.230;2022-07-22T07:44:32;101366.66;;;18.26;100.00
37610;BME280;23457;51.966;8.230;2022-07-22T07:46:58;101359.63;;;18.30;100.00
37610;BME280;23457;51.966;8.230;2022-07-22T07:49:25;101366.66;;;18.31;100.00
37610;BME280;23457;51.966;8.230;2022-07-22T07:51:51;101360.50;;;18.34;100.00
37610;BME280;23457;51.966;8.230;2022-07-22T07:54:19;101378.03;;;18.35;98.30
37610;BME280;23457;51.966;8.230;2022-07-22T07:56:49;101374.63;;;18.11;98.83
37610;BME280;23457;51.966;8.230;2022-07-22T07:59:17;101373.66;;;18.29;100.00
37610;BME280;23457;51.966;8.230;2022-07-22T08:01:54;101376.97;;;18.68;99.96
37610;BME280;23457;51.966;8.230;2022-07-22T08:04:24;101363.84;;;18.57;100.00
37610;BME280;23457;51.966;8.230;2022-07-22T08:07:11;101367.44;;;18.44;96.63
37610;BME280;23457;51.966;8.230;2022-07-22T08:09:38;101366.47;;;18.65;98.49
37610;BME280;23457;51.966;8.230;2022-07-22T08:12:06;101377.03;;;18.60;99.88
37610;BME280;23457;51.966;8.230;2022-07-22T08:14:33;101371.69;;;18.71;99.13
37610;BME280;23457;51.966;8.230;2022-07-22T08:17:00;101362.66;;;19.04;95.68
37610;BME280;23457;51.966;8.230;2022-07-22T08:19:27;101364.19;;;19.29;91.38
37610;BME280;23457;51.966;8.230;2022-07-22T08:21:53;101361.88;;;18.89;95.53
37610;BME280;23457;51.966;8.230;2022-07-22T08:24:20;101360.00;;;19.04;90.88
37610;BME280;23457;51.966;8.230;2022-07-22T08:26:46;101358.09;;;19.24;95.80
37610;BME280;23457;51.966;8.230;2022-07-22T08:29:13;101363.19;;;19.41;95.00
37610;BME280;23457;51.966;8.230;2022-07-22T08:31:40;101359.72;;;19.37;91.95
37610;BME280;23457;51.966;8.230;2022-07-22T08:34:06;101358.56;;;19.65;89.42
37610;BME280;23457;51.966;8.230;2022-07-22T08:36:33;101359.56;;;19.52;93.86
37610;BME280;23457;51.966;8.230;2022-07-22T08:38:59;101360.53;;;19.44;91.84
37610;BME280;23457;51.966;8.230;2022-07-22T08:41:28;101366.66;;;19.50;91.80
37610;BME280;23457;51.966;8.230;2022-07-22T08:44:00;101368.44;;;19.42;89.11
37610;BME280;23457;51.966;8.230;2022-07-22T08:46:27;101372.41;;;18.89;89.80
37610;BME280;23457;51.966;8.230;2022-07-22T08:48:54;101366.03;;;19.21;90.69
37610;BME280;23457;51.966;8.230;2022-07-22T08:51:22;101364.38;;;19.06;88.72
37610;BME280;23457;51.966;8.230;2022-07-22T08:53:49;101362.63;;;19.05;90.93
37610;BME280;23457;51.966;8.230;2022-07-22T08:56:16;101369.56;;;19.15;89.07
37610;BME280;23457;51.966;8.230;2022-07-22T08:58:42;101365.19;;;19.16;91.95
37610;BME280;23457;51.966;8.230;2022-07-22T09:01:13;101370.28;;;19.34;89.78
37610;BME280;23457;51.966;8.230;2022-07-22T09:03:46;101368.75;;;19.10;89.72
37610;BME280;23457;51.966;8.230;2022-07-22T09:06:13;101357.22;;;19.22;89.17
37610;BME280;23457;51.966;8.230;2022-07-22T09:11:21;101361.56;;;19.26;88.91
37610;BME280;23457;51.966;8.230;2022-07-22T09:13:49;101367.03;;;19.06;87.38
37610;BME280;23457;51.966;8.230;2022-07-22T09:16:15;101366.94;;;19.17;89.38
37610;BME280;23457;51.966;8.230;2022-07-22T09:18:53;101374.84;;;19.17;88.40
37610;BME280;23457;51.966;8.230;2022-07-22T09:21:21;101366.06;;;19.13;88.43
37610;BME280;23457;51.966;8.230;2022-07-22T09:23:47;101369.78;;;18.88;88.06
37610;BME280;23457;51.966;8.230;2022-07-22T09:26:30;101365.25;;;19.10;86.64
37610;BME280;23457;51.966;8.230;2022-07-22T09:28:57;101371.63;;;18.80;86.83
37610;BME280;23457;51.966;8.230;2022-07-22T09:31:31;101367.00;;;19.11;86.64
37610;BME280;23457;51.966;8.230;2022-07-22T09:34:01;101373.97;;;19.15;82.68
37610;BME280;23457;51.966;8.230;2022-07-22T09:36:29;101368.78;;;19.06;84.86
37610;BME280;23457;51.966;8.230;2022-07-22T09:38:56;101367.75;;;19.23;89.26
37610;BME280;23457;51.966;8.230;2022-07-22T09:41:24;101366.78;;;19.35;87.88
37610;BME280;23457;51.966;8.230;2022-07-22T09:43:51;101365.91;;;19.33;89.97
37610;BME280;23457;51.966;8.230;2022-07-22T09:46:34;101370.34;;;19.26;86.75
37610;BME280;23457;51.966;8.230;2022-07-22T09:49:00;101370.09;;;19.55;86.98
37610;BME280;23457;51.966;8.230;2022-07-22T09:51:29;101368.41;;;19.48;81.91
37610;BME280;23457;51.966;8.230;2022-07-22T09:53:57;101367.34;;;19.66;80.21
37610;BME280;23457;51.966;8.230;2022-07-22T09:56:24;101373.19;;;19.91;80.68
37610;BME280;23457;51.966;8.230;2022-07-22T09:58:52;101368.81;;;19.90;81.84
37610;BME280;23457;51.966;8.230;2022-07-22T10:01:19;101364.56;;;19.77;85.65
37610;BME280;23457;51.966;8.230;2022-07-22T10:03:48;101373.22;;;19.89;83.61
37610;BME280;23457;51.966;8.230;2022-07-22T10:06:15;101379.59;;;19.73;80.85
37610;BME280;23457;51.966;8.230;2022-07-22T10:08:42;101378.88;;;19.54;81.19
37610;BME280;23457;51.966;8.230;2022-07-22T10:11:09;101365.53;;;19.73;78.21
37610;BME280;23457;51.966;8.230;2022-07-22T10:13:37;101369.13;;;19.64;78.02
37610;BME280;23457;51.966;8.230;2022-07-22T10:16:05;101370.00;;;19.64;82.56
37610;BME280;23457;51.966;8.230;2022-07-22T10:18:32;101375.06;;;19.83;80.24
37610;BME280;23457;51.966;8.230;2022-07-22T10:21:05;101376.22;;;19.59;78.95
37610;BME280;23457;51.966;8.230;2022-07-22T10:23:32;101372.28;;;19.95;77.44
37610;BME280;23457;51.966;8.230;2022-07-22T10:26:00;101375.94;;;19.85;82.20
37610;BME280;23457;51.966;8.230;2022-07-22T10:28:32;101379.16;;;20.08;78.34
37610;BME280;23457;51.966;8.230;2022-07-22T10:31:24;101376.72;;;19.90;78.76
37610;BME280;23457;51.966;8.230;2022-07-22T10:33:54;101378.28;;;20.09;81.76
37610;BME280;23457;51.966;8.230;2022-07-22T10:36:36;101381.53;;;19.54;81.26
37610;BME280;23457;51.966;8.230;2022-07-22T10:39:07;101380.81;;;19.37;82.58
37610;BME280;23457;51.966;8.230;2022-07-22T10:41:36;101380.88;;;19.29;82.59
37610;BME280;23457;51.966;8.230;2022-07-22T10:44:04;101380.72;;;19.43;80.71
37610;BME280;23457;51.966;8.230;2022-07-22T10:46:53;101381.59;;;19.44;82.45
37610;BME280;23457;51.966;8.230;2022-07-22T10:49:22;101377.22;;;19.41;81.52
37610;BME280;23457;51.966;8.230;2022-07-22T10:52:08;101369.44;;;19.30;82.85
37610;BME280;23457;51.966;8.230;2022-07-22T10:55:20;101365.53;;;19.71;84.05
37610;BME280;23457;51.966;8.230;2022-07-22T10:57:47;101367.13;;;19.86;84.38
37610;BME280;23457;51.966;8.230;2022-07-22T11:00:15;101366.09;;;19.99;80.50
37610;BME280;23457;51.966;8.230;2022-07-22T11:02:42;101368.72;;;19.99;82.77
37610;BME280;23457;51.966;8.230;2022-07-22T11:05:09;101366.41;;;19.72;83.66
37610;BME280;23457;51.966;8.230;2022-07-22T11:07:46;101364.88;;;19.48;79.62
37610;BME280;23457;51.966;8.230;2022-07-22T11:10:15;101371.78;;;19.62;80.47
37610;BME280;23457;51.966;8.230;2022-07-22T11:12:45;101348.88;;;19.66;78.81
37610;BME280;23457;51.966;8.230;2022-07-22T11:15:12;101356.78;;;19.67;79.26
37610;BME280;23457;51.966;8.230;2022-07-22T11:17:39;101359.38;;;19.71;80.31
37610;BME280;23457;51.966;8.230;2022-07-22T11:20:08;101359.44;;;19.64;79.71
37610;BME280;23457;51.966;8.230;2022-07-22T11:22:36;101356.00;;;19.58;79.55
37610;BME280;23457;51.966;8.230;2022-07-22T11:25:09;101354.13;;;19.71;79.74
37610;BME280;23457;51.966;8.230;2022-07-22T11:27:36;101356.59;;;19.86;82.66
37610;BME280;23457;51.966;8.230;2022-07-22T11:30:04;101356.34;;;20.04;77.08
37610;BME280;23457;51.966;8.230;2022-07-22T11:32:32;101358.25;;;19.93;78.59
37610;BME280;23457;51.966;8.230;2022-07-22T11:35:00;101356.50;;;19.89;82.25
37610;BME280;23457;51.966;8.230;2022-07-22T11:37:28;101350.50;;;19.78;81.20
37610;BME280;23457;51.966;8.230;2022-07-22T11:40:05;101350.19;;;20.02;82.77
37610;BME280;23457;51.966;8.230;2022-07-22T11:42:33;101335.88;;;20.21;81.19
37610;BME280;23457;51.966;8.230;2022-07-22T11:45:00;101340.97;;;20.35;81.84
37610;BME280;23457;51.966;8.230;2022-07-22T11:47:27;101337.59;;;20.25;76.79
37610;BME280;23457;51.966;8.230;2022-07-22T11:49:54;101344.88;;;20.05;78.22
37610;BME280;23457;51.966;8.230;2022-07-22T11:52:20;101339.44;;;20.17;75.39
37610;BME280;23457;51.966;8.230;2022-07-22T11:54:47;101335.72;;;20.36;76.18
37610;BME280;23457;51.966;8.230;2022-07-22T11:57:14;101335.03;;;20.19;79.13
37610;BME280;23457;51.966;8.230;2022-07-22T11:59:41;101340.63;;;19.96;78.70
37610;BME280;23457;51.966;8.230;2022-07-22T12:02:08;101338.84;;;19.98;77.56
37610;BME280;23457;51.966;8.230;2022-07-22T12:04:38;101343.44;;;19.80;79.86
37610;BME280;23457;51.966;8.230;2022-07-22T12:07:05;101338.97;;;19.88;78.34
37610;BME280;23457;51.966;8.230;2022-07-22T12:09:34;101337.97;;;19.96;82.42
37610;BME280;23457;51.966;8.230;2022-07-22T12:12:02;101340.19;;;20.27;77.43
37610;BME280;23457;51.966;8.230;2022-07-22T12:14:32;101345.19;;;20.50;74.10
37610;BME280;23457;51.966;8.230;2022-07-22T12:17:05;101346.94;;;20.51;78.80
37610;BME280;23457;51.966;8.230;2022-07-22T12:19:33;101345.31;;;20.41;77.07
37610;BME280;23457;51.966;8.230;2022-07-22T12:22:04;101338.22;;;20.44;76.88
37610;BME280;23457;51.966;8.230;2022-07-22T12:24:37;101344.47;;;20.38;76.07
37610;BME280;23457;51.966;8.230;2022-07-22T12:27:15;101342.66;;;20.41;78.27
37610;BME280;23457;51.966;8.230;2022-07-22T12:29:43;101337.66;;;20.21;79.07
37610;BME280;23457;51.966;8.230;2022-07-22T12:32:26;101339.91;;;20.50;78.29
37610;BME280;23457;51.966;8.230;2022-07-22T12:35:05;101330.13;;;20.55;78.80
37610;BME280;23457;51.966;8.230;2022-07-22T12:40:07;101327.69;;;20.43;77.54
37610;BME280;23457;51.966;8.230;2022-07-22T12:42:37;101322.69;;;20.20;74.81
37610;BME280;23457;51.966;8.230;2022-07-22T12:45:07;101314.38;;;20.52;76.54
37610;BME280;23457;51.966;8.230;2022-07-22T12:47:50;101319.25;;;20.76;72.56
37610;BME280;23457;51.966;8.230;2022-07-22T12:53:15;101317.50;;;20.75;75.29
37610;BME280;23457;51.966;8.230;2022-07-22T12:55:53;101318.50;;;20.66;75.50